Time;durP1;ratioP1;P1;durP2;ratioP2;P2;SDS_P1;SDS_P2;PMS_P1;PMS_P2;Temp;Humidity;BMP_temperature;BMP_pressure;BME280_temperature;BME280_humidity;BME280_pressure;Samples;Min_cycle;Max_cycle;Signal;HPM_P1;HPM_P2
2022/11/28 00:01:24;;;;;;;2.45;2.13;;;;;;;8.44;91.65;100891.75;4996436;28;20475;-67
2022/11/28 00:03:49;;;;;;;4.45;2.35;;;;;;;8.47;91.53;100872.31;4990586;28;20376;-67
2022/11/28 00:06:15;;;;;;;10.60;4.07;;;;;;;8.23;91.78;100867.69;4988353;28;20034;-67
2022/11/28 00:08:41;;;;;;;3.97;2.30;;;;;;;8.37;92.08;100880.00;4985433;28;20122;-67
2022/11/28 00:11:09;;;;;;;8.85;3.22;;;;;;;8.39;91.74;100864.38;4990099;28;20461;-67
2022/11/28 00:13:35;;;;;;;5.80;3.38;;;;;;;8.29;91.28;100878.22;4989435;28;20038;-67
2022/11/28 00:16:03;;;;;;;4.47;2.72;;;;;;;8.20;92.51;100868.34;4999287;28;20038;-67
2022/11/28 00:18:30;;;;;;;5.13;3.58;;;;;;;8.29;92.07;100876.31;4988541;28;20040;-67
2022/11/28 00:21:05;;;;;;;6.18;3.38;;;;;;;8.27;92.20;100865.13;4988379;28;20484;-68
2022/11/28 00:23:31;;;;;;;3.20;2.42;;;;;;;8.34;92.03;100860.03;4988476;28;20456;-68
2022/11/28 00:26:04;;;;;;;5.85;3.08;;;;;;;8.29;91.62;100868.28;4988482;28;20121;-68
2022/11/28 00:28:29;;;;;;;6.25;2.70;;;;;;;8.20;92.61;100876.41;4985715;28;20049;-68
2022/11/28 00:30:55;;;;;;;4.50;2.83;;;;;;;8.23;92.01;100866.88;4994419;28;20026;-67
2022/11/28 00:33:20;;;;;;;3.83;2.55;;;;;;;8.30;91.74;100852.97;5008596;28;20113;-68
2022/11/28 00:35:46;;;;;;;6.85;2.88;;;;;;;8.22;91.28;100857.28;4993340;28;20466;-68
2022/11/28 00:38:11;;;;;;;4.80;2.70;;;;;;;8.06;92.39;100872.44;4991720;28;20406;-68
2022/11/28 00:40:37;;;;;;;3.83;2.60;;;;;;;8.14;92.48;100844.75;5005370;28;20038;-68
2022/11/28 00:43:02;;;;;;;3.80;2.45;;;;;;;8.32;91.66;100848.03;4993430;28;20361;-68
2022/11/28 00:45:51;;;;;;;4.93;2.78;;;;;;;8.23;91.63;100842.75;4992582;28;20097;-68
2022/11/28 00:48:16;;;;;;;4.97;2.83;;;;;;;8.04;92.59;100853.22;4929499;29;20405;-68
2022/11/28 00:50:41;;;;;;;6.00;2.88;;;;;;;8.21;92.13;100848.44;4920384;29;20047;-68
2022/11/28 00:53:30;;;;;;;3.65;2.47;;;;;;;8.14;91.83;100847.44;4920184;29;20062;-68
2022/11/28 00:55:58;;;;;;;;;;;;;;;8.26;91.23;100836.75;4879842;29;20060;-67
2022/11/28 00:58:24;;;;;;;4.28;1.90;;;;;;;8.40;91.66;100828.38;4878187;29;19915;-67
2022/11/28 01:00:49;;;;;;;6.35;3.13;;;;;;;8.36;91.51;100833.63;4872192;29;20056;-68
2022/11/28 01:03:15;;;;;;;4.88;2.83;;;;;;;8.30;91.30;100821.56;4879541;29;20041;-68
2022/11/28 01:05:42;;;;;;;2.85;2.08;;;;;;;8.30;91.23;100813.50;4885385;29;20132;-67
2022/11/28 01:08:09;;;;;;;4.38;2.75;;;;;;;8.33;90.30;100812.03;4881129;29;20524;-68
2022/11/28 01:10:43;;;;;;;3.65;2.00;;;;;;;8.35;90.82;100799.06;4877594;29;20041;-67
2022/11/28 01:13:09;;;;;;;6.63;2.60;;;;;;;8.30;90.76;100804.66;4881897;29;20040;-68
2022/11/28 01:15:35;;;;;;;3.63;2.42;;;;;;;8.21;91.13;100799.38;4880852;29;20041;-68
2022/11/28 01:18:01;;;;;;;4.20;2.40;;;;;;;8.30;90.98;100810.03;4868170;29;20053;-68
2022/11/28 01:20:27;;;;;;;5.18;2.90;;;;;;;8.50;90.47;100806.44;4884333;29;20096;-68
2022/11/28 01:22:53;;;;;;;3.67;2.30;;;;;;;8.47;90.41;100813.28;4896662;29;20041;-68
2022/11/28 01:25:18;;;;;;;6.90;2.47;;;;;;;8.30;89.63;100808.16;4921270;28;20050;-68
2022/11/28 01:27:44;;;;;;;7.00;2.60;;;;;;;8.31;90.69;100819.63;4955023;28;20523;-68
2022/11/28 01:30:09;;;;;;;6.05;2.53;;;;;;;8.32;90.38;100797.06;4927633;28;20035;-68
2022/11/28 01:32:35;;;;;;;5.68;2.47;;;;;;;8.18;90.39;100800.84;4951116;28;20073;-68
2022/11/28 01:35:00;;;;;;;7.28;2.60;;;;;;;8.20;90.85;100787.09;4973543;28;20038;-68
2022/11/28 01:37:28;;;;;;;8.57;2.75;;;;;;;8.27;90.63;100802.66;4990922;28;20042;-67
2022/11/28 01:39:54;;;;;;;4.32;2.60;;;;;;;8.29;90.84;100795.03;4991407;28;20258;-67
2022/11/28 01:42:19;;;;;;;3.42;1.95;;;;;;;8.23;90.47;100775.69;4975358;28;20121;-68
2022/11/28 01:44:48;;;;;;;4.22;2.53;;;;;;;8.20;91.17;100779.03;4988100;28;20042;-68
2022/11/28 01:47:24;;;;;;;3.40;2.50;;;;;;;8.30;90.94;100772.47;4991609;28;20057;-67
2022/11/28 01:49:50;;;;;;;4.13;2.05;;;;;;;8.27;91.07;100770.44;4974857;28;20042;-68
2022/11/28 01:52:18;;;;;;;7.63;2.78;;;;;;;8.29;90.82;100765.53;4992755;28;20030;-67
2022/11/28 01:54:49;;;;;;;4.15;2.38;;;;;;;8.22;90.62;100763.41;4972324;28;20049;-68
2022/11/28 01:57:19;;;;;;;6.72;2.70;;;;;;;8.29;90.23;100739.50;4989736;28;20034;-68
2022/11/28 01:59:52;;;;;;;3.67;1.92;;;;;;;8.35;90.61;100738.16;4990388;28;20034;-68
2022/11/28 02:02:28;;;;;;;4.95;2.25;;;;;;;8.46;90.13;100752.66;4987046;28;20495;-68
2022/11/28 02:04:53;;;;;;;4.18;2.47;;;;;;;8.37;90.17;100743.19;4972358;28;20026;-68
2022/11/28 02:07:19;;;;;;;4.93;1.88;;;;;;;8.33;90.32;100726.97;5007038;28;20045;-68
2022/11/28 02:09:44;;;;;;;4.72;2.85;;;;;;;8.15;90.90;100718.34;4988588;28;20073;-67
2022/11/28 02:12:22;;;;;;;13.32;3.45;;;;;;;8.19;91.44;100713.09;4991458;28;20049;-68
2022/11/28 02:15:26;;;;;;;4.78;2.25;;;;;;;8.23;91.35;100708.63;5006186;28;20042;-68
2022/11/28 02:18:30;;;;;;;3.05;2.28;;;;;;;8.32;90.68;100706.66;4987997;28;20153;-68
2022/11/28 02:21:24;;;;;;;4.93;2.65;;;;;;;8.31;90.41;100697.03;5006026;28;20221;-67
2022/11/28 02:24:26;;;;;;;3.10;2.00;;;;;;;8.27;90.60;100684.63;4989532;28;20128;-67
2022/11/28 02:27:37;;;;;;;2.47;1.90;;;;;;;8.14;90.85;100667.75;4989527;28;20264;-68
2022/11/28 02:30:28;;;;;;;6.40;2.80;;;;;;;8.19;90.24;100662.91;4911510;29;20092;-68
2022/11/28 02:33:13;;;;;;;4.28;2.03;;;;;;;8.15;91.13;100661.25;4886757;29;20092;-68
2022/11/28 02:35:50;;;;;;;3.67;2.03;;;;;;;8.20;90.44;100653.78;4908710;29;20410;-68
2022/11/28 02:38:25;;;;;;;5.10;2.78;;;;;;;8.20;90.78;100645.72;4911943;29;20139;-68
2022/11/28 02:40:59;;;;;;;3.53;2.13;;;;;;;8.14;90.56;100654.34;4905726;29;20442;-68
2022/11/28 02:44:03;;;;;;;4.85;2.53;;;;;;;8.17;90.91;100648.28;4908105;29;20584;-67
2022/11/28 02:46:39;;;;;;;6.35;2.83;;;;;;;8.09;89.93;100643.84;4880408;29;20044;-68
2022/11/28 02:49:09;;;;;;;3.35;2.00;;;;;;;8.18;89.78;100636.44;4894110;29;20071;-68
2022/11/28 02:51:37;;;;;;;4.78;2.67;;;;;;;8.21;89.97;100630.38;4911001;29;20036;-68
2022/11/28 02:54:06;;;;;;;4.65;2.67;;;;;;;8.17;89.19;100624.94;4909924;29;20440;-68
2022/11/28 02:56:32;;;;;;;3.20;2.28;;;;;;;8.08;89.46;100610.09;4880077;29;20087;-68
2022/11/28 02:58:57;;;;;;;3.65;2.40;;;;;;;7.94;89.54;100606.97;4910078;29;20040;-68
2022/11/28 03:01:28;;;;;;;4.25;2.65;;;;;;;8.04;89.59;100615.34;4961644;28;20542;-68
2022/11/28 03:04:23;;;;;;;4.13;2.50;;;;;;;8.06;89.81;100612.31;4991482;28;20066;-68
2022/11/28 03:06:58;;;;;;;3.90;2.53;;;;;;;7.98;89.44;100613.22;5001390;28;20192;-68
2022/11/28 03:09:45;;;;;;;3.40;2.30;;;;;;;8.09;89.30;100614.34;4983460;28;20037;-68
2022/11/28 03:13:03;;;;;;;5.43;3.08;;;;;;;8.06;89.02;100615.00;4989789;28;20069;-68
2022/11/28 03:15:47;;;;;;;4.95;2.20;;;;;;;8.06;88.95;100631.09;4947940;28;20046;-68
2022/11/28 03:18:22;;;;;;;6.28;2.38;;;;;;;8.09;88.51;100635.81;4931477;28;20508;-69
2022/11/28 03:20:54;;;;;;;6.78;3.08;;;;;;;7.94;88.65;100623.84;4938084;28;20432;-68
2022/11/28 03:23:49;;;;;;;3.40;2.33;;;;;;;8.03;88.75;100623.75;4930608;28;20255;-67
2022/11/28 03:26:26;;;;;;;3.05;1.98;;;;;;;7.83;88.20;100622.75;4932443;28;20031;-68
2022/11/28 03:29:00;;;;;;;5.65;3.00;;;;;;;7.78;89.23;100624.88;4952789;28;20162;-67
2022/11/28 03:31:40;;;;;;;5.55;3.17;;;;;;;7.93;88.84;100624.19;4949657;28;20038;-68
2022/11/28 03:34:10;;;;;;;4.25;3.17;;;;;;;8.13;88.66;100616.00;4937191;29;20058;-68
2022/11/28 03:36:42;;;;;;;3.72;2.22;;;;;;;8.10;87.51;100605.16;4948658;28;20073;-68
2022/11/28 03:39:12;;;;;;;8.93;3.63;;;;;;;8.07;87.69;100600.50;4933741;29;20149;-68
2022/11/28 03:41:44;;;;;;;5.47;2.60;;;;;;;8.08;87.39;100608.19;4933267;28;20046;-68
2022/11/28 03:44:15;;;;;;;8.02;2.40;;;;;;;8.04;87.60;100601.16;4934649;28;20031;-68
2022/11/28 03:46:46;;;;;;;3.65;2.53;;;;;;;7.90;88.68;100598.03;4977161;28;20046;-68
2022/11/28 03:49:19;;;;;;;5.20;2.60;;;;;;;7.83;88.75;100600.53;4993236;28;20074;-68
2022/11/28 03:52:12;;;;;;;5.90;2.65;;;;;;;8.02;88.36;100608.75;4987110;28;20113;-68
2022/11/28 03:54:47;;;;;;;4.78;2.60;;;;;;;8.01;87.44;100604.53;4982978;28;20035;-68
2022/11/28 03:58:01;;;;;;;3.67;2.65;;;;;;;7.98;87.66;100602.50;4987604;28;20038;-68
2022/11/28 04:00:27;;;;;;;4.20;2.20;;;;;;;7.75;88.50;100596.06;4949140;28;20063;-68
2022/11/28 04:03:21;;;;;;;7.28;2.50;;;;;;;7.72;88.87;100588.72;4998142;28;20092;-68
2022/11/28 04:06:01;;;;;;;7.13;2.90;;;;;;;7.68;88.56;100593.19;4992669;28;20030;-68
2022/11/28 04:08:42;;;;;;;4.75;2.40;;;;;;;7.90;88.28;100606.09;4984343;28;20113;-68
2022/11/28 04:11:14;;;;;;;4.68;2.40;;;;;;;8.13;87.58;100604.47;4977284;28;20034;-68
2022/11/28 04:13:52;;;;;;;6.53;3.13;;;;;;;8.10;86.58;100597.13;4993649;28;20499;-68
2022/11/28 04:16:32;;;;;;;4.43;2.47;;;;;;;8.15;86.91;100621.00;4991422;28;20089;-68
2022/11/28 04:19:09;;;;;;;12.80;3.27;;;;;;;8.07;86.89;100600.50;4993105;28;20041;-68
2022/11/28 04:21:42;;;;;;;4.60;2.85;;;;;;;7.96;86.92;100620.81;4993207;28;20336;-68
2022/11/28 04:24:13;;;;;;;7.90;2.70;;;;;;;7.90;87.38;100630.22;4993645;28;20128;-68
2022/11/28 04:26:45;;;;;;;;;;;;;;;7.59;88.30;100632.72;4993576;28;20041;-68
2022/11/28 04:29:15;;;;;;;4.03;2.50;;;;;;;7.75;88.21;100636.25;4997962;28;20400;-68
2022/11/28 04:31:45;;;;;;;3.83;2.17;;;;;;;7.85;88.11;100628.56;4995028;28;20441;-68
2022/11/28 04:34:15;;;;;;;3.92;2.47;;;;;;;7.94;87.39;100610.44;4999150;28;20044;-68
2022/11/28 04:36:43;;;;;;;4.90;2.65;;;;;;;7.86;87.69;100623.97;4997085;28;20482;-67
2022/11/28 04:39:16;;;;;;;4.95;2.58;;;;;;;7.93;87.65;100635.72;5007208;28;20034;-68
2022/11/28 04:41:50;;;;;;;5.45;3.05;;;;;;;7.77;87.42;100628.66;4992695;28;20499;-67
2022/11/28 04:44:26;;;;;;;4.47;2.40;;;;;;;7.92;87.76;100619.94;4993250;28;20434;-68
2022/11/28 04:46:55;;;;;;;4.32;2.58;;;;;;;7.81;88.14;100597.41;4993424;28;20032;-68
2022/11/28 04:49:22;;;;;;;7.47;2.92;;;;;;;7.85;87.54;100606.34;4992408;28;20030;-68
2022/11/28 04:51:48;;;;;;;5.07;2.90;;;;;;;7.95;86.92;100614.72;4993085;28;20026;-68
2022/11/28 04:54:29;;;;;;;3.85;1.98;;;;;;;7.91;87.29;100613.03;4994505;28;20096;-68
2022/11/28 04:57:16;;;;;;;4.05;2.72;;;;;;;7.87;86.91;100612.94;4987137;28;20483;-68
2022/11/28 04:59:43;;;;;;;4.10;2.58;;;;;;;8.02;86.63;100609.53;5005810;28;20046;-68
2022/11/28 05:02:29;;;;;;;3.65;2.40;;;;;;;8.16;86.18;100612.66;4991661;28;20479;-68
2022/11/28 05:04:55;;;;;;;6.20;2.92;;;;;;;8.03;86.28;100599.59;4924115;29;20509;-68
2022/11/28 05:07:22;;;;;;;4.50;2.28;;;;;;;7.99;86.38;100609.44;4948498;28;20095;-68
2022/11/28 05:09:48;;;;;;;4.57;2.67;;;;;;;7.82;87.33;100591.69;4935068;29;20548;-67
2022/11/28 05:12:16;;;;;;;7.78;2.72;;;;;;;7.94;86.80;100585.53;4920559;29;20087;-68
2022/11/28 05:14:42;;;;;;;4.45;2.75;;;;;;;7.92;87.10;100587.75;4949101;28;20542;-68
2022/11/28 05:17:11;;;;;;;4.35;2.85;;;;;;;8.07;86.83;100584.41;4931644;28;20059;-68
2022/11/28 05:19:36;;;;;;;5.97;3.13;;;;;;;8.04;86.98;100575.13;4945740;28;20037;-68
2022/11/28 05:22:02;;;;;;;6.55;2.58;;;;;;;8.03;86.89;100576.22;4935249;29;20438;-68
2022/11/28 05:24:27;;;;;;;5.40;2.28;;;;;;;7.97;86.01;100590.22;4952852;28;20046;-68
2022/11/28 05:26:52;;;;;;;7.82;3.13;;;;;;;7.93;86.61;100608.13;4952274;28;20050;-68
2022/11/28 05:29:18;;;;;;;7.75;3.70;;;;;;;7.51;88.60;100641.63;4915182;29;20043;-68
2022/11/28 05:31:43;;;;;;;4.75;2.60;;;;;;;7.56;89.48;100654.81;4917900;29;20049;-68
2022/11/28 05:34:09;;;;;;;5.85;2.60;;;;;;;7.52;90.19;100661.94;4935794;29;20070;-68
2022/11/28 05:36:37;;;;;;;3.85;2.58;;;;;;;7.64;89.22;100659.28;4937486;29;20046;-68
2022/11/28 05:39:03;;;;;;;5.75;2.83;;;;;;;7.54;90.50;100660.50;4938758;29;20057;-68
2022/11/28 05:41:30;;;;;;;3.88;2.47;;;;;;;7.55;90.89;100662.06;4951904;28;20038;-68
2022/11/28 05:43:57;;;;;;;3.75;2.38;;;;;;;7.53;90.57;100674.25;4988917;28;20388;-68
2022/11/28 05:46:23;;;;;;;3.58;2.25;;;;;;;7.60;90.36;100672.56;4989179;28;20031;-67
2022/11/28 05:48:49;;;;;;;4.22;2.15;;;;;;;7.56;90.65;100669.00;4990139;28;20062;-68
2022/11/28 05:51:14;;;;;;;7.32;3.05;;;;;;;7.58;90.96;100680.16;4988690;28;20033;-68
2022/11/28 05:53:39;;;;;;;3.05;2.35;;;;;;;7.91;89.32;100675.47;4979423;28;20031;-68
2022/11/28 05:56:10;;;;;;;7.00;3.47;;;;;;;7.87;89.45;100671.13;5003897;28;20057;-68
2022/11/28 05:58:37;;;;;;;6.05;2.85;;;;;;;7.66;90.22;100670.44;4993657;28;20026;-68
2022/11/28 06:01:15;;;;;;;4.78;3.17;;;;;;;7.75;90.39;100673.78;5004461;28;20435;-68
2022/11/28 06:03:41;;;;;;;3.47;2.35;;;;;;;7.38;90.64;100670.28;4992468;28;20041;-68
2022/11/28 06:06:15;;;;;;;5.03;2.55;;;;;;;7.52;90.00;100656.59;4991662;28;20476;-68
2022/11/28 06:08:41;;;;;;;4.70;2.45;;;;;;;7.59;89.80;100644.19;4985113;28;20035;-68
2022/11/28 06:11:07;;;;;;;5.80;2.72;;;;;;;7.69;89.65;100632.25;4987039;28;20038;-68
2022/11/28 06:13:33;;;;;;;3.30;2.40;;;;;;;7.72;89.79;100618.19;4979137;28;20037;-68
2022/11/28 06:15:59;;;;;;;6.82;3.20;;;;;;;7.78;89.10;100614.94;4977371;28;20040;-68
2022/11/28 06:18:24;;;;;;;5.18;2.97;;;;;;;7.63;89.65;100606.78;4982363;28;20129;-67
2022/11/28 06:20:49;;;;;;;6.18;2.75;;;;;;;7.68;89.39;100614.63;4988958;28;20081;-68
2022/11/28 06:23:15;;;;;;;4.80;2.60;;;;;;;7.77;88.83;100607.22;4973598;28;20034;-68
2022/11/28 06:25:40;;;;;;;4.43;2.38;;;;;;;7.81;88.91;100600.06;4985268;28;20031;-68
2022/11/28 06:28:06;;;;;;;6.18;2.80;;;;;;;7.83;88.83;100597.84;4975684;28;20046;-68
2022/11/28 06:30:31;;;;;;;6.68;2.95;;;;;;;7.81;88.53;100598.19;4979905;28;20046;-67
2022/11/28 06:32:57;;;;;;;4.07;2.40;;;;;;;7.70;87.59;100591.72;4977621;28;20046;-68
2022/11/28 06:35:22;;;;;;;5.90;2.88;;;;;;;7.82;87.89;100596.28;4979366;28;20172;-67
2022/11/28 06:37:48;;;;;;;7.03;3.08;;;;;;;7.86;87.77;100606.00;4986369;28;20504;-68
2022/11/28 06:40:13;;;;;;;5.20;3.15;;;;;;;7.93;87.98;100610.78;4986208;28;20050;-67
2022/11/28 06:42:39;;;;;;;6.82;2.88;;;;;;;7.97;87.45;100609.00;4982581;28;20042;-69
2022/11/28 06:45:05;;;;;;;6.82;2.70;;;;;;;8.14;87.27;100608.75;5003673;28;20045;-67
2022/11/28 06:47:31;;;;;;;7.05;3.38;;;;;;;8.11;86.56;100587.94;4988340;28;20112;-68
2022/11/28 06:49:56;;;;;;;5.47;2.72;;;;;;;8.02;86.52;100581.94;4999092;28;20104;-68
2022/11/28 06:52:21;;;;;;;8.90;3.33;;;;;;;7.93;86.55;100594.72;4989016;28;20562;-69
2022/11/28 06:54:47;;;;;;;5.50;2.83;;;;;;;7.84;87.17;100591.38;4978153;28;20622;-68
2022/11/28 06:57:15;;;;;;;4.57;2.72;;;;;;;7.78;86.81;100595.41;4989871;28;20035;-68
2022/11/28 06:59:40;;;;;;;6.20;2.47;;;;;;;7.80;87.27;100585.88;4989334;28;20030;-68
2022/11/28 07:02:06;;;;;;;8.75;3.33;;;;;;;7.98;86.56;100597.16;4992262;28;20038;-68
2022/11/28 07:04:32;;;;;;;7.35;3.65;;;;;;;7.99;86.55;100601.41;4989835;28;20056;-68
2022/11/28 07:06:57;;;;;;;6.35;3.50;;;;;;;7.97;86.46;100617.84;4978935;28;20037;-68
2022/11/28 07:09:23;;;;;;;4.78;3.15;;;;;;;8.12;85.69;100646.63;4972940;28;20022;-68
2022/11/28 07:11:48;;;;;;;6.30;3.13;;;;;;;7.97;85.87;100633.13;4988713;28;20034;-68
2022/11/28 07:14:14;;;;;;;4.95;2.58;;;;;;;7.83;86.47;100614.72;4990440;28;20034;-68
2022/11/28 07:16:39;;;;;;;5.00;2.97;;;;;;;7.97;85.51;100611.69;4990720;28;20080;-69
2022/11/28 07:19:05;;;;;;;6.72;3.30;;;;;;;7.98;86.07;100629.31;4988129;28;20379;-69
2022/11/28 07:21:31;;;;;;;4.93;3.28;;;;;;;7.98;86.37;100643.50;4990768;28;20038;-69
2022/11/28 07:23:58;;;;;;;8.00;3.72;;;;;;;7.63;87.26;100655.81;4991776;28;20026;-69
2022/11/28 07:26:23;;;;;;;3.75;2.80;;;;;;;7.76;87.70;100638.59;4974098;28;20030;-69
2022/11/28 07:28:50;;;;;;;5.25;3.28;;;;;;;7.80;87.40;100631.47;5003358;28;20034;-68
2022/11/28 07:31:24;;;;;;;5.88;3.10;;;;;;;7.72;87.73;100634.28;4988794;28;20033;-68
2022/11/28 07:33:50;;;;;;;9.13;3.60;;;;;;;7.70;87.56;100631.13;5004158;28;20116;-69
2022/11/28 07:36:21;;;;;;;5.80;2.90;;;;;;;7.56;88.05;100628.81;5005693;28;20522;-68
2022/11/28 07:38:48;;;;;;;7.13;3.88;;;;;;;7.58;88.80;100621.22;4990843;28;20040;-68
2022/11/28 07:41:14;;;;;;;7.35;3.88;;;;;;;7.75;88.34;100622.88;4987741;28;20035;-69
2022/11/28 07:43:41;;;;;;;8.35;3.13;;;;;;;7.70;87.46;100637.28;4983642;28;20104;-68
2022/11/28 07:46:09;;;;;;;4.13;2.78;;;;;;;7.70;88.59;100639.19;4973881;28;20026;-68
2022/11/28 07:48:35;;;;;;;8.63;3.28;;;;;;;7.52;88.54;100645.88;4990282;28;20105;-68
2022/11/28 07:51:09;;;;;;;12.23;4.57;;;;;;;7.60;88.67;100648.44;4987590;28;20157;-68
2022/11/28 07:53:35;;;;;;;5.63;2.78;;;;;;;7.64;87.75;100643.19;4990892;28;20026;-68
2022/11/28 07:56:06;;;;;;;6.50;3.15;;;;;;;7.81;88.06;100640.28;4991141;28;20502;-68
2022/11/28 07:58:34;;;;;;;9.10;3.75;;;;;;;7.91;87.88;100635.25;4985790;28;20035;-68
2022/11/28 08:01:06;;;;;;;7.68;4.40;;;;;;;7.89;87.66;100642.06;4987141;28;20042;-68
2022/11/28 08:03:31;;;;;;;9.85;4.35;;;;;;;7.72;87.86;100632.38;4990169;28;20399;-68
2022/11/28 08:05:59;;;;;;;7.53;4.00;;;;;;;7.82;88.03;100620.41;4986998;28;20045;-68
2022/11/28 08:08:25;;;;;;;5.45;3.53;;;;;;;7.81;87.95;100630.34;5003091;28;20030;-68
2022/11/28 08:10:50;;;;;;;7.43;3.85;;;;;;;7.78;88.22;100632.94;4990815;28;20037;-68
2022/11/28 08:13:16;;;;;;;7.40;3.83;;;;;;;7.67;88.53;100629.91;4991127;28;20026;-68
2022/11/28 08:15:41;;;;;;;8.13;4.18;;;;;;;7.82;88.19;100628.47;5005948;28;20449;-68
2022/11/28 08:18:06;;;;;;;9.32;3.97;;;;;;;7.90;88.02;100619.50;4997362;28;20438;-68
2022/11/28 08:20:32;;;;;;;9.00;3.55;;;;;;;7.92;87.83;100625.31;4991062;28;20041;-69
2022/11/28 08:22:57;;;;;;;10.52;5.15;;;;;;;7.99;87.32;100630.91;4973013;28;20039;-68
2022/11/28 08:25:23;;;;;;;10.48;4.47;;;;;;;8.05;87.12;100629.56;4989103;28;20022;-68
2022/11/28 08:27:48;;;;;;;6.38;3.78;;;;;;;8.05;86.98;100634.91;4972996;28;20414;-68
2022/11/28 08:30:14;;;;;;;7.40;3.78;;;;;;;8.04;86.86;100634.13;4983821;28;20089;-68
2022/11/28 08:32:39;;;;;;;5.57;3.42;;;;;;;7.87;87.14;100644.31;4996214;28;20041;-68
2022/11/28 08:35:05;;;;;;;10.57;4.57;;;;;;;8.02;87.45;100654.34;4996064;28;20045;-68
2022/11/28 08:37:31;;;;;;;7.30;3.97;;;;;;;7.83;87.49;100649.56;4996912;28;20030;-68
2022/11/28 08:39:56;;;;;;;9.23;4.30;;;;;;;8.08;86.73;100650.31;4997735;28;20030;-68
2022/11/28 08:42:22;;;;;;;5.47;3.47;;;;;;;8.04;86.53;100649.44;5005025;28;20406;-68
2022/11/28 08:44:47;;;;;;;5.82;3.80;;;;;;;7.92;87.06;100652.91;4999622;28;20077;-68
2022/11/28 08:47:13;;;;;;;6.97;4.03;;;;;;;8.06;86.29;100658.69;5000016;28;20042;-68
2022/11/28 08:49:39;;;;;;;9.43;3.60;;;;;;;8.04;85.95;100665.50;4989594;28;20242;-68
2022/11/28 08:52:05;;;;;;;8.77;4.10;;;;;;;8.01;86.32;100666.19;4994435;28;20109;-68
2022/11/28 08:54:31;;;;;;;7.53;4.28;;;;;;;8.03;85.89;100666.66;4994519;28;20022;-69
2022/11/28 08:56:57;;;;;;;6.05;3.33;;;;;;;8.15;85.65;100656.66;4992555;28;20102;-68
2022/11/28 08:59:23;;;;;;;9.40;3.72;;;;;;;8.18;85.50;100676.69;4990595;28;20030;-69
2022/11/28 09:01:53;;;;;;;8.88;4.00;;;;;;;7.91;85.49;100677.38;4990240;28;20074;-68
2022/11/28 09:04:19;;;;;;;10.32;3.88;;;;;;;7.91;85.97;100678.16;4989819;28;20384;-68
2022/11/28 09:06:44;;;;;;;8.60;4.07;;;;;;;8.05;85.79;100675.13;4993024;28;20038;-68
2022/11/28 09:09:10;;;;;;;10.48;3.95;;;;;;;8.21;85.37;100678.66;4992443;28;20088;-67
2022/11/28 09:11:36;;;;;;;9.80;4.80;;;;;;;7.98;85.41;100677.59;5003214;28;20057;-68
2022/11/28 09:14:01;;;;;;;8.32;4.07;;;;;;;8.09;85.19;100666.06;4976754;28;20018;-67
2022/11/28 09:16:27;;;;;;;8.98;3.90;;;;;;;7.98;84.85;100669.53;4989364;28;20528;-68
2022/11/28 09:18:53;;;;;;;8.30;4.00;;;;;;;8.05;84.41;100667.84;5003300;28;20042;-68
2022/11/28 09:21:19;;;;;;;5.63;3.17;;;;;;;8.17;85.26;100664.38;4988576;28;20129;-68
2022/11/28 09:23:44;;;;;;;5.15;3.33;;;;;;;8.14;84.63;100655.13;4994124;28;20105;-68
2022/11/28 09:26:15;;;;;;;6.95;3.75;;;;;;;8.19;84.32;100660.25;4995178;28;20121;-68
2022/11/28 09:28:41;;;;;;;6.17;3.63;;;;;;;8.15;84.05;100666.59;4991077;28;20118;-68
2022/11/28 09:31:07;;;;;;;8.75;3.65;;;;;;;8.26;83.52;100667.75;4993101;28;20468;-67
2022/11/28 09:33:33;;;;;;;3.83;2.75;;;;;;;8.35;83.38;100656.88;5006037;28;20112;-68
2022/11/28 09:36:06;;;;;;;5.85;3.22;;;;;;;8.29;82.79;100661.69;4993396;28;20051;-68
2022/11/28 09:38:32;;;;;;;5.72;3.08;;;;;;;8.37;82.77;100660.00;5001925;28;20188;-68
2022/11/28 09:40:57;;;;;;;5.85;3.05;;;;;;;8.43;82.15;100662.13;4993593;28;20386;-68
2022/11/28 09:43:40;;;;;;;9.38;3.47;;;;;;;8.44;82.51;100669.03;4993623;28;20030;-68
2022/11/28 09:46:12;;;;;;;7.68;3.63;;;;;;;8.39;81.95;100666.59;4983112;28;20026;-68
2022/11/28 09:48:47;;;;;;;8.02;4.25;;;;;;;8.36;81.87;100661.94;4984276;28;20039;-68
2022/11/28 09:51:24;;;;;;;6.47;2.95;;;;;;;8.35;81.98;100673.75;5003550;28;20210;-68
2022/11/28 09:54:01;;;;;;;10.60;2.88;;;;;;;8.44;82.10;100671.72;4991531;28;20034;-68
2022/11/28 09:56:27;;;;;;;8.02;3.10;;;;;;;8.51;81.68;100668.47;4991028;28;20046;-68
2022/11/28 09:58:59;;;;;;;7.65;3.00;;;;;;;8.35;81.83;100671.09;4981039;28;20031;-68
2022/11/28 10:01:28;;;;;;;6.07;3.03;;;;;;;8.35;81.28;100667.59;5006778;28;20026;-68
2022/11/28 10:04:15;;;;;;;10.30;3.78;;;;;;;8.14;82.09;100665.84;4984202;28;20034;-68
2022/11/28 10:06:58;;;;;;;8.15;3.70;;;;;;;8.25;82.56;100660.03;4978264;28;20328;-68
2022/11/28 10:09:36;;;;;;;5.72;3.40;;;;;;;8.25;82.65;100660.81;4987916;28;20049;-68
2022/11/28 10:12:39;;;;;;;7.40;3.20;;;;;;;8.34;82.92;100656.13;4992813;28;20129;-68
2022/11/28 10:15:10;;;;;;;4.25;2.75;;;;;;;8.55;82.67;100653.25;5007595;28;20034;-68
2022/11/28 10:17:48;;;;;;;5.10;3.35;;;;;;;8.67;82.29;100656.66;4990534;28;20034;-68
2022/11/28 10:20:24;;;;;;;6.93;3.55;;;;;;;8.83;82.35;100667.44;4990778;28;20092;-68
2022/11/28 10:23:22;;;;;;;7.03;3.60;;;;;;;8.88;81.60;100669.91;4991795;28;20038;-68
2022/11/28 10:25:56;;;;;;;6.45;2.95;;;;;;;8.80;81.19;100670.81;4974978;28;20105;-68
2022/11/28 10:28:32;;;;;;;12.80;4.43;;;;;;;8.57;82.37;100661.75;4979225;28;20026;-68
2022/11/28 10:31:20;;;;;;;7.00;3.40;;;;;;;8.47;83.04;100668.38;4998353;28;20113;-68
2022/11/28 10:33:53;;;;;;;9.30;3.85;;;;;;;8.37;82.85;100663.47;4985513;28;20031;-68
2022/11/28 10:36:45;;;;;;;8.45;4.30;;;;;;;8.31;83.26;100654.09;4990027;28;20149;-67
2022/11/28 10:39:13;;;;;;;7.13;3.40;;;;;;;8.44;83.14;100662.91;4990026;28;20046;-67
2022/11/28 10:42:12;;;;;;;6.63;2.88;;;;;;;8.54;83.35;100660.50;4992828;28;20033;-67
2022/11/28 10:44:59;;;;;;;6.15;3.15;;;;;;;8.53;83.67;100660.88;4992551;28;20022;-68
2022/11/28 10:47:44;;;;;;;5.07;3.35;;;;;;;8.61;82.75;100654.56;4987091;28;20399;-67
2022/11/28 10:50:20;;;;;;;5.70;3.55;;;;;;;8.54;82.48;100657.03;4990986;28;20042;-68
2022/11/28 10:52:57;;;;;;;9.77;3.72;;;;;;;8.44;82.61;100652.94;4990339;28;20125;-68
2022/11/28 10:55:23;;;;;;;12.02;3.80;;;;;;;8.49;83.03;100659.97;4992256;28;20479;-69
2022/11/28 10:57:59;;;;;;;7.53;4.10;;;;;;;8.59;82.64;100651.44;4985913;28;20024;-69
2022/11/28 11:00:24;;;;;;;6.90;4.03;;;;;;;8.55;82.87;100648.69;4992428;28;20081;-68
2022/11/28 11:02:55;;;;;;;4.55;3.03;;;;;;;8.61;82.85;100658.06;5005151;28;20062;-68
2022/11/28 11:05:28;;;;;;;5.60;3.20;;;;;;;8.69;81.80;100648.28;4981616;28;20034;-68
2022/11/28 11:07:56;;;;;;;9.38;3.70;;;;;;;8.65;82.05;100645.47;4991964;28;20449;-68
2022/11/28 11:10:34;;;;;;;9.10;4.65;;;;;;;8.66;82.38;100644.38;4985412;28;20023;-68
2022/11/28 11:13:08;;;;;;;7.28;3.58;;;;;;;8.44;82.35;100636.84;4987742;28;20042;-68
2022/11/28 11:15:34;;;;;;;7.90;4.05;;;;;;;8.34;83.56;100640.03;4989994;28;20049;-68
2022/11/28 11:18:04;;;;;;;5.72;3.45;;;;;;;8.46;83.64;100644.56;4990793;28;20109;-68
2022/11/28 11:20:34;;;;;;;7.65;2.80;;;;;;;8.60;82.56;100647.63;4986700;28;20116;-68
2022/11/28 11:23:09;;;;;;;6.65;3.45;;;;;;;8.59;82.58;100644.19;4990763;28;20042;-68
2022/11/28 11:25:35;;;;;;;7.07;3.70;;;;;;;8.57;82.18;100651.00;4992370;28;20053;-68
2022/11/28 11:28:03;;;;;;;5.97;3.05;;;;;;;8.54;82.21;100646.31;4991363;28;20026;-68
2022/11/28 11:30:38;;;;;;;5.50;2.90;;;;;;;8.56;81.87;100646.75;4983340;28;20078;-68
2022/11/28 11:33:06;;;;;;;6.72;3.33;;;;;;;8.52;82.28;100638.59;5000574;28;20422;-68
2022/11/28 11:35:43;;;;;;;8.27;3.75;;;;;;;8.61;82.62;100650.00;4997771;28;20557;-68
2022/11/28 11:38:21;;;;;;;8.60;3.35;;;;;;;8.54;82.80;100641.72;4982709;28;20053;-68
2022/11/28 11:40:48;;;;;;;6.30;2.92;;;;;;;8.38;83.88;100643.56;4990313;28;20030;-68
2022/11/28 11:43:32;;;;;;;6.57;3.08;;;;;;;8.45;84.39;100634.94;4993523;28;20044;-68
2022/11/28 11:46:10;;;;;;;7.97;3.35;;;;;;;8.47;83.84;100638.06;4989833;28;20081;-68
2022/11/28 11:48:41;;;;;;;4.68;3.03;;;;;;;8.47;83.91;100641.53;5006893;28;20550;-69
2022/11/28 11:51:27;;;;;;;5.38;3.13;;;;;;;8.46;84.58;100637.28;4991319;28;20034;-68
2022/11/28 11:54:18;;;;;;;5.20;3.28;;;;;;;8.36;86.10;100642.34;4983283;28;20038;-68